Agana Heights, Guam
Current Conditions -  °F | °C
As of 7:54 PM on Saturday 20 Dec 2014 (Local Time) from PGUM Reporting Station
Few Clouds Few Clouds  
Wind Chill: 83°   Ceiling: Unl
Heat Index: 90°   Visibility: 10mi
Dew Point: 75°   Wind: 14mph
Humidity: 77%   Direction: 80°E
Pressure: 29.89"   Gusts: NA
Location:  13.47°N, 144.74°E
Report Text: PGUM 200954Z 08012KT 10SM FEW020 28/24 A2989 RMK AO2 SLP112 T02830239
Loading
Personal Weather Stations






























Interactive Weather Map New forecast layout! Learn more

10-Day Weather Forecast

Advertisements
Track Severe Weather on mobile